createdAt,value
2022-12-07T00:01:44.869Z,32.85
2022-12-07T00:04:17.946Z,30.73
2022-12-07T00:07:27.700Z,28.60
2022-12-07T00:09:56.980Z,30.58
2022-12-07T00:12:41.852Z,28.45
2022-12-07T00:15:35.805Z,30.20
2022-12-07T00:18:04.763Z,29.08
2022-12-07T00:20:48.179Z,29.35
2022-12-07T00:23:25.482Z,27.02
2022-12-07T00:26:15.521Z,29.63
2022-12-07T00:28:46.445Z,31.08
2022-12-07T00:31:20.508Z,28.60
2022-12-07T00:34:02.329Z,29.52
2022-12-07T00:36:43.610Z,33.40
2022-12-07T00:39:13.572Z,32.50
2022-12-07T00:41:48.755Z,30.38
2022-12-07T00:47:34.468Z,30.02
2022-12-07T00:50:32.610Z,31.83
2022-12-07T00:53:42.185Z,29.90
2022-12-07T00:56:24.119Z,28.50
2022-12-07T00:58:59.953Z,31.35
2022-12-07T01:04:45.725Z,29.50
2022-12-07T01:07:13.494Z,33.78
2022-12-07T01:09:43.634Z,28.30
2022-12-07T01:12:13.438Z,28.73
2022-12-07T01:14:43.803Z,29.13
2022-12-07T01:17:30.327Z,29.05
2022-12-07T01:20:08.381Z,29.98
2022-12-07T01:22:58.347Z,28.13
2022-12-07T01:25:26.268Z,28.48
2022-12-07T01:28:10.478Z,29.02
2022-12-07T01:30:39.284Z,30.25
2022-12-07T01:33:13.765Z,32.30
2022-12-07T01:35:42.685Z,27.80
2022-12-07T01:38:11.605Z,31.77
2022-12-07T01:41:06.559Z,29.02
2022-12-07T01:43:57.082Z,32.65
2022-12-07T01:46:45.085Z,32.28
2022-12-07T01:49:22.963Z,31.05
2022-12-07T01:51:51.358Z,28.25
2022-12-07T01:54:37.519Z,34.22
2022-12-07T01:57:08.676Z,33.30
2022-12-07T01:59:44.133Z,29.35
2022-12-07T02:02:18.210Z,29.33
2022-12-07T02:05:15.133Z,29.50
2022-12-07T02:07:48.304Z,34.10
2022-12-07T02:10:19.511Z,29.45
2022-12-07T02:12:51.339Z,37.55
2022-12-07T02:18:43.808Z,31.08
2022-12-07T02:21:38.776Z,30.48
2022-12-07T02:24:47.644Z,37.28
2022-12-07T02:27:36.214Z,31.20
2022-12-07T02:30:08.277Z,33.10
2022-12-07T02:32:47.226Z,32.97
2022-12-07T02:35:24.197Z,33.60
2022-12-07T02:38:26.396Z,31.52
2022-12-07T02:40:56.515Z,28.48
2022-12-07T02:43:36.632Z,33.58
2022-12-07T02:46:08.355Z,31.33
2022-12-07T02:48:54.377Z,32.88
2022-12-07T02:51:43.907Z,32.85
2022-12-07T02:54:31.175Z,32.85
2022-12-07T02:57:22.050Z,36.80
2022-12-07T03:00:09.350Z,27.05
2022-12-07T03:02:55.818Z,33.90
2022-12-07T03:09:05.718Z,26.85
2022-12-07T03:12:09.849Z,34.08
2022-12-07T03:15:00.651Z,32.92
2022-12-07T03:17:31.223Z,28.50
2022-12-07T03:20:01.334Z,26.87
2022-12-07T03:22:42.184Z,28.13
2022-12-07T03:25:25.128Z,31.45
2022-12-07T03:28:00.773Z,29.13
2022-12-07T03:34:02.273Z,32.35
2022-12-07T03:37:06.392Z,31.20
2022-12-07T03:40:04.693Z,30.98
2022-12-07T03:42:52.397Z,34.90
2022-12-07T03:45:27.941Z,31.38
2022-12-07T03:48:02.052Z,29.42
2022-12-07T03:50:38.396Z,29.25
2022-12-07T03:53:23.856Z,31.40
2022-12-07T03:56:00.425Z,31.23
2022-12-07T03:59:13.414Z,31.33
2022-12-07T04:01:55.365Z,31.13
2022-12-07T04:04:43.803Z,32.40
2022-12-07T04:07:34.409Z,30.63
2022-12-07T04:10:17.847Z,32.33
2022-12-07T04:12:45.794Z,29.27
2022-12-07T04:15:49.066Z,31.25
2022-12-07T04:18:26.133Z,28.27
2022-12-07T04:21:00.304Z,28.58
2022-12-07T04:23:34.619Z,31.05
2022-12-07T04:26:24.485Z,30.77
2022-12-07T04:28:58.016Z,29.67
2022-12-07T04:31:26.833Z,33.25
2022-12-07T04:34:11.200Z,31.92
2022-12-07T04:36:53.414Z,35.72
2022-12-07T04:39:49.428Z,31.75
2022-12-07T04:42:31.574Z,35.80
2022-12-07T04:45:10.381Z,30.10
2022-12-07T04:47:38.361Z,31.42
2022-12-07T04:50:13.128Z,27.48
2022-12-07T04:52:43.203Z,25.65
2022-12-07T04:55:34.345Z,22.92
2022-12-07T04:58:18.605Z,21.27
2022-12-07T05:00:47.151Z,21.00
2022-12-07T05:03:15.297Z,23.30
2022-12-07T05:05:50.397Z,25.27
2022-12-07T05:08:18.574Z,23.58
2022-12-07T05:11:11.256Z,24.40
2022-12-07T05:13:40.358Z,18.23
2022-12-07T05:16:10.223Z,21.80
2022-12-07T05:18:47.229Z,23.92
2022-12-07T05:21:16.163Z,21.92
2022-12-07T05:23:44.014Z,20.98
2022-12-07T05:26:19.215Z,24.73
2022-12-07T05:29:13.398Z,25.73
2022-12-07T05:31:49.276Z,25.60
2022-12-07T05:37:35.407Z,27.58
2022-12-07T05:40:15.175Z,28.40
2022-12-07T05:42:44.662Z,28.08
2022-12-07T05:45:18.682Z,29.27
2022-12-07T05:47:46.330Z,29.85
2022-12-07T05:50:14.292Z,24.77
2022-12-07T05:52:42.275Z,29.73
2022-12-07T05:55:16.307Z,27.65
2022-12-07T05:58:21.628Z,25.05
2022-12-07T06:00:52.850Z,27.88
2022-12-07T06:06:39.272Z,27.05
2022-12-07T06:09:09.658Z,28.92
2022-12-07T06:14:50.489Z,29.83
2022-12-07T06:17:21.628Z,27.75
2022-12-07T06:19:49.584Z,28.63
2022-12-07T06:22:18.636Z,28.20
2022-12-07T06:24:49.667Z,29.23
2022-12-07T06:27:44.434Z,28.48
2022-12-07T06:30:15.444Z,28.10
2022-12-07T06:32:52.661Z,27.48
2022-12-07T06:35:20.914Z,27.75
2022-12-07T06:38:20.318Z,29.13
2022-12-07T06:40:48.163Z,28.02
2022-12-07T06:43:17.180Z,28.67
2022-12-07T06:46:00.655Z,28.42
2022-12-07T06:48:28.603Z,27.58
2022-12-07T06:54:12.699Z,27.40
2022-12-07T06:56:54.030Z,25.63
2022-12-07T06:59:28.377Z,28.15
2022-12-07T07:02:00.846Z,30.60
2022-12-07T07:04:36.036Z,30.63
2022-12-07T07:07:10.806Z,37.08
2022-12-07T07:09:51.779Z,29.60
2022-12-07T07:12:19.777Z,31.55
2022-12-07T07:14:48.680Z,33.70
2022-12-07T07:17:39.544Z,27.38
2022-12-07T07:20:17.696Z,29.85
2022-12-07T07:22:51.120Z,29.60
2022-12-07T07:25:38.174Z,30.23
2022-12-07T07:28:07.381Z,31.85
2022-12-07T07:30:45.321Z,28.27
2022-12-07T07:33:21.479Z,34.72
2022-12-07T07:36:00.700Z,28.40
2022-12-07T07:39:02.856Z,32.55
2022-12-07T07:41:36.898Z,29.15
2022-12-07T07:44:13.789Z,32.97
2022-12-07T07:46:58.169Z,28.02
2022-12-07T07:49:27.584Z,30.80
2022-12-07T07:51:57.763Z,33.70
2022-12-07T07:54:26.831Z,36.53
2022-12-07T07:57:06.215Z,32.97
2022-12-07T07:59:36.232Z,29.90
2022-12-07T08:02:15.794Z,27.45
2022-12-07T08:05:16.948Z,28.33
2022-12-07T08:07:59.608Z,31.02
2022-12-07T08:10:28.607Z,32.80
2022-12-07T08:13:30.928Z,30.48
2022-12-07T08:15:59.356Z,29.02
2022-12-07T08:18:40.865Z,29.40
2022-12-07T08:21:09.550Z,27.42
2022-12-07T08:23:45.850Z,32.67
2022-12-07T08:26:26.158Z,29.88
2022-12-07T08:29:01.709Z,25.50
2022-12-07T08:31:34.696Z,37.67
2022-12-07T08:34:07.565Z,32.08
2022-12-07T08:36:57.866Z,30.83
2022-12-07T08:39:32.363Z,26.38
2022-12-07T08:42:00.971Z,30.02
2022-12-07T08:44:37.993Z,29.33
2022-12-07T08:47:08.061Z,29.23
2022-12-07T08:49:41.659Z,22.85
2022-12-07T08:52:25.092Z,28.25
2022-12-07T08:54:56.062Z,27.95
2022-12-07T08:57:38.480Z,25.60
2022-12-07T09:00:07.904Z,22.48
2022-12-07T09:02:52.155Z,25.23
2022-12-07T09:05:22.423Z,24.70
2022-12-07T09:07:57.678Z,24.98
2022-12-07T09:10:39.791Z,24.85
2022-12-07T09:13:15.007Z,27.58
2022-12-07T09:15:45.068Z,23.05
2022-12-07T09:18:16.634Z,24.42
2022-12-07T09:20:46.000Z,21.13
2022-12-07T09:23:15.068Z,23.50
2022-12-07T09:25:43.028Z,23.58
2022-12-07T09:28:36.754Z,18.80
2022-12-07T09:31:23.371Z,22.08
2022-12-07T09:34:13.734Z,22.15
2022-12-07T09:36:45.253Z,20.10
2022-12-07T09:41:48.447Z,19.33
2022-12-07T09:44:28.125Z,19.42
2022-12-07T09:46:56.432Z,19.50
2022-12-07T09:49:26.549Z,19.48
2022-12-07T09:52:17.310Z,19.42
2022-12-07T09:54:48.357Z,17.53
2022-12-07T09:57:28.512Z,18.33
2022-12-07T10:00:21.544Z,21.73
2022-12-07T10:03:11.380Z,17.40
2022-12-07T10:05:51.385Z,18.95
2022-12-07T10:08:25.440Z,17.80
2022-12-07T10:10:55.841Z,16.35
2022-12-07T10:13:39.662Z,20.90
2022-12-07T10:16:29.757Z,19.48
2022-12-07T10:18:58.628Z,16.33
2022-12-07T10:21:37.643Z,18.98
2022-12-07T10:24:17.095Z,16.75
2022-12-07T10:26:51.475Z,14.65
2022-12-07T10:29:31.597Z,17.13
2022-12-07T10:32:29.023Z,18.77
2022-12-07T10:35:19.203Z,16.50
2022-12-07T10:37:49.429Z,18.27
2022-12-07T10:40:29.056Z,20.08
2022-12-07T10:43:21.027Z,17.35
2022-12-07T10:46:30.922Z,21.48
2022-12-07T10:49:18.444Z,17.33
2022-12-07T10:51:48.596Z,18.38
2022-12-07T10:54:37.481Z,18.30
2022-12-07T10:57:26.730Z,16.05
2022-12-07T11:00:13.456Z,16.00
2022-12-07T11:03:00.054Z,12.93
2022-12-07T11:12:08.231Z,17.63
2022-12-07T11:15:06.326Z,17.38
2022-12-07T11:17:58.071Z,17.90
2022-12-07T11:23:17.823Z,19.58
2022-12-07T11:29:13.586Z,18.98
2022-12-07T11:35:19.184Z,20.15
2022-12-07T11:37:48.411Z,17.95
2022-12-07T11:40:20.487Z,19.30
2022-12-07T11:42:54.569Z,16.55
2022-12-07T11:48:44.022Z,15.77
2022-12-07T11:51:16.862Z,16.05
2022-12-07T11:54:00.097Z,21.45
2022-12-07T11:56:30.426Z,12.93
2022-12-07T11:59:26.461Z,12.85
2022-12-07T12:02:27.368Z,12.90
2022-12-07T12:05:02.433Z,12.50
2022-12-07T12:10:53.338Z,13.82
2022-12-07T12:17:24.009Z,12.85
2022-12-07T12:23:15.664Z,17.77
2022-12-07T12:26:00.679Z,12.73
2022-12-07T12:28:50.506Z,14.05
2022-12-07T12:31:32.808Z,14.07
2022-12-07T12:34:04.652Z,16.23
2022-12-07T12:36:57.301Z,19.67
2022-12-07T12:39:28.448Z,14.27
2022-12-07T12:42:29.362Z,13.40
2022-12-07T12:45:30.510Z,14.82
2022-12-07T12:48:07.008Z,11.93
2022-12-07T12:50:45.879Z,13.60
2022-12-07T12:53:36.737Z,13.18
2022-12-07T12:56:24.756Z,16.00
2022-12-07T12:59:11.727Z,10.60
2022-12-07T13:01:42.638Z,11.27
2022-12-07T13:04:29.734Z,12.73
2022-12-07T13:07:02.996Z,12.82
2022-12-07T13:09:46.729Z,15.43
2022-12-07T13:12:23.994Z,13.68
2022-12-07T13:14:57.307Z,12.65
2022-12-07T13:17:37.643Z,20.65
2022-12-07T13:20:15.861Z,12.15
2022-12-07T13:23:01.960Z,13.07
2022-12-07T13:25:50.363Z,14.35
2022-12-07T13:28:20.123Z,11.05
2022-12-07T13:30:50.162Z,12.90
2022-12-07T13:33:24.766Z,12.00
2022-12-07T13:36:07.822Z,13.90
2022-12-07T13:38:37.478Z,16.17
2022-12-07T13:41:25.753Z,16.13
2022-12-07T13:44:42.037Z,13.95
2022-12-07T13:47:15.224Z,14.95
2022-12-07T13:49:56.655Z,16.45
2022-12-07T13:52:29.985Z,15.95
2022-12-07T13:55:39.377Z,14.63
2022-12-07T13:58:12.585Z,13.63
2022-12-07T14:00:47.086Z,15.25
2022-12-07T14:03:32.406Z,12.88
2022-12-07T14:06:22.118Z,14.48
2022-12-07T14:08:58.525Z,12.10
2022-12-07T14:11:44.042Z,14.88
2022-12-07T14:14:36.515Z,13.65
2022-12-07T14:17:15.680Z,13.80
2022-12-07T14:20:02.771Z,13.98
2022-12-07T14:22:43.227Z,13.93
2022-12-07T14:25:20.500Z,16.10
2022-12-07T14:28:01.596Z,11.68
2022-12-07T14:30:40.661Z,16.45
2022-12-07T14:33:21.779Z,13.32
2022-12-07T14:35:51.105Z,14.23
2022-12-07T14:38:21.012Z,15.35
2022-12-07T14:41:26.723Z,15.70
2022-12-07T14:44:21.886Z,16.80
2022-12-07T14:46:45.160Z,17.80
2022-12-07T14:55:11.329Z,20.10
2022-12-07T14:57:50.134Z,19.85
2022-12-07T15:00:45.183Z,22.15
2022-12-07T15:03:19.463Z,21.02
2022-12-07T15:05:56.631Z,22.42
2022-12-07T15:08:35.258Z,21.25
2022-12-07T15:11:03.221Z,25.90
2022-12-07T15:13:53.955Z,17.67
2022-12-07T15:16:25.506Z,19.53
2022-12-07T15:19:27.294Z,21.52
2022-12-07T15:25:14.504Z,21.92
2022-12-07T15:27:44.301Z,14.15
2022-12-07T15:30:21.315Z,19.58
2022-12-07T15:32:52.848Z,20.05
2022-12-07T15:35:42.868Z,18.73
2022-12-07T15:38:57.453Z,23.45
2022-12-07T15:41:39.593Z,22.05
2022-12-07T15:44:30.935Z,18.17
2022-12-07T15:49:28.455Z,23.98
2022-12-07T15:51:57.744Z,22.45
2022-12-07T15:54:28.782Z,24.65
2022-12-07T15:56:57.470Z,24.00
2022-12-07T15:59:27.850Z,23.50
2022-12-07T16:01:56.165Z,24.60
2022-12-07T16:04:25.279Z,19.35
2022-12-07T16:06:54.151Z,23.63
2022-12-07T16:09:23.337Z,20.50
2022-12-07T16:11:52.739Z,23.98
2022-12-07T16:14:20.514Z,23.67
2022-12-07T16:16:48.476Z,23.20
2022-12-07T16:19:17.462Z,24.65
2022-12-07T16:21:51.976Z,25.13
2022-12-07T16:24:21.035Z,24.25
2022-12-07T16:26:50.465Z,29.20
2022-12-07T16:29:31.267Z,28.95
2022-12-07T16:32:00.163Z,28.23
2022-12-07T16:34:28.790Z,33.47
2022-12-07T16:37:05.373Z,24.20
2022-12-07T16:39:34.360Z,21.23
2022-12-07T16:42:05.511Z,21.85
2022-12-07T16:44:34.552Z,17.77
2022-12-07T16:47:05.582Z,19.83
2022-12-07T16:49:33.498Z,20.42
2022-12-07T16:52:19.895Z,18.95
2022-12-07T16:54:59.290Z,26.95
2022-12-07T16:57:34.515Z,29.67
2022-12-07T17:00:10.085Z,27.85
2022-12-07T17:02:47.735Z,29.00
2022-12-07T17:05:27.104Z,28.08
2022-12-07T17:08:03.955Z,28.60
2022-12-07T17:10:35.061Z,25.75
2022-12-07T17:16:15.865Z,26.58
2022-12-07T17:19:07.417Z,19.92
2022-12-07T17:21:41.582Z,23.88
2022-12-07T17:24:19.506Z,22.52
2022-12-07T17:26:54.345Z,22.55
2022-12-07T17:29:22.506Z,21.52
2022-12-07T17:31:52.380Z,15.32
2022-12-07T17:34:29.014Z,21.08
2022-12-07T17:37:01.862Z,15.77
2022-12-07T17:39:31.060Z,15.82
2022-12-07T17:42:21.562Z,14.88
2022-12-07T17:45:23.188Z,18.13
2022-12-07T17:47:51.245Z,28.45
2022-12-07T17:50:39.182Z,29.80
2022-12-07T17:53:12.820Z,22.02
2022-12-07T17:58:38.983Z,28.60
2022-12-07T18:01:12.264Z,24.90
2022-12-07T18:04:03.836Z,23.70
2022-12-07T18:06:46.244Z,24.58
2022-12-07T18:09:26.943Z,26.02
2022-12-07T18:11:56.012Z,24.45
2022-12-07T18:14:31.036Z,26.17
2022-12-07T18:17:01.064Z,25.63
2022-12-07T18:19:32.676Z,27.73
2022-12-07T18:22:02.315Z,24.10
2022-12-07T18:24:36.465Z,26.92
2022-12-07T18:27:08.452Z,23.92
2022-12-07T18:29:36.503Z,26.05
2022-12-07T18:32:12.551Z,23.02
2022-12-07T18:34:42.518Z,21.80
2022-12-07T18:37:22.945Z,22.85
2022-12-07T18:39:59.100Z,25.45
2022-12-07T18:42:48.799Z,18.65
2022-12-07T18:45:25.979Z,17.38
2022-12-07T18:47:55.103Z,18.52
2022-12-07T18:50:32.206Z,18.20
2022-12-07T18:53:10.491Z,17.17
2022-12-07T18:55:45.574Z,17.83
2022-12-07T18:58:13.352Z,14.27
2022-12-07T19:01:17.512Z,16.55
2022-12-07T19:03:57.783Z,13.98
2022-12-07T19:06:26.924Z,13.20
2022-12-07T19:08:58.974Z,12.32
2022-12-07T19:11:51.144Z,16.33
2022-12-07T19:14:27.646Z,14.82
2022-12-07T19:17:14.965Z,18.55
2022-12-07T19:19:50.593Z,19.45
2022-12-07T19:22:45.661Z,15.85
2022-12-07T19:25:15.374Z,15.82
2022-12-07T19:27:45.378Z,16.67
2022-12-07T19:30:21.430Z,16.52
2022-12-07T19:32:50.357Z,18.75
2022-12-07T19:35:18.401Z,15.18
2022-12-07T19:37:49.300Z,17.67
2022-12-07T19:40:26.694Z,20.20
2022-12-07T19:43:10.216Z,13.30
2022-12-07T19:45:39.021Z,12.32
2022-12-07T19:48:17.458Z,15.02
2022-12-07T19:50:45.234Z,14.93
2022-12-07T19:53:17.069Z,20.75
2022-12-07T19:55:44.801Z,19.45
2022-12-07T19:58:26.572Z,14.93
2022-12-07T20:01:04.272Z,17.58
2022-12-07T20:03:42.476Z,13.52
2022-12-07T20:06:26.794Z,14.18
2022-12-07T20:08:59.024Z,11.88
2022-12-07T20:11:52.549Z,13.65
2022-12-07T20:14:27.998Z,16.52
2022-12-07T20:16:57.124Z,18.40
2022-12-07T20:19:27.102Z,14.00
2022-12-07T20:21:59.195Z,16.20
2022-12-07T20:24:35.988Z,16.15
2022-12-07T20:27:15.486Z,17.05
2022-12-07T20:29:52.348Z,19.42
2022-12-07T20:32:27.303Z,26.65
2022-12-07T20:35:06.905Z,20.15
2022-12-07T20:37:36.303Z,19.65
2022-12-07T20:40:10.698Z,14.80
2022-12-07T20:42:38.577Z,15.52
2022-12-07T20:45:10.916Z,18.63
2022-12-07T20:47:49.120Z,15.57
2022-12-07T20:50:18.059Z,16.83
2022-12-07T20:53:00.545Z,12.25
2022-12-07T20:55:29.841Z,12.40
2022-12-07T21:10:53.113Z,13.45
2022-12-07T21:13:26.765Z,14.80
2022-12-07T21:15:56.991Z,11.55
2022-12-07T21:18:27.203Z,13.07
2022-12-07T21:20:56.273Z,15.75
2022-12-07T21:23:25.479Z,13.73
2022-12-07T21:25:57.203Z,9.00
2022-12-07T21:28:32.389Z,11.73
2022-12-07T21:31:16.276Z,11.45
2022-12-07T21:33:54.729Z,11.70
2022-12-07T21:36:42.410Z,12.52
2022-12-07T21:39:19.900Z,11.70
2022-12-07T21:41:49.965Z,12.23
2022-12-07T21:44:26.853Z,13.13
2022-12-07T21:47:16.886Z,12.90
2022-12-07T21:49:45.013Z,16.98
2022-12-07T21:52:13.875Z,32.08
2022-12-07T21:54:51.068Z,26.70
2022-12-07T21:57:24.120Z,18.83
2022-12-07T21:59:55.878Z,11.63
2022-12-07T22:02:25.210Z,16.23
2022-12-07T22:04:54.278Z,11.88
2022-12-07T22:07:41.930Z,10.75
2022-12-07T22:10:32.028Z,12.45
2022-12-07T22:13:00.657Z,12.93
2022-12-07T22:15:29.677Z,8.77
2022-12-07T22:18:00.743Z,5.72
2022-12-07T22:20:39.694Z,4.38
2022-12-07T22:23:10.516Z,4.00
2022-12-07T22:25:40.596Z,7.20
2022-12-07T22:28:08.564Z,4.93
2022-12-07T22:30:48.672Z,8.48
2022-12-07T22:33:20.038Z,13.27
2022-12-07T22:36:09.892Z,6.85
2022-12-07T22:41:55.834Z,9.85
2022-12-07T22:44:29.121Z,10.77
2022-12-07T22:47:18.878Z,13.95
2022-12-07T22:49:46.910Z,79.85
2022-12-07T22:52:28.974Z,15.68
2022-12-07T22:55:15.150Z,9.32
2022-12-07T22:57:48.447Z,6.50
2022-12-07T23:00:22.481Z,18.08
2022-12-07T23:02:51.587Z,7.15
2022-12-07T23:05:20.827Z,11.23
2022-12-07T23:07:53.161Z,9.95
2022-12-07T23:10:29.456Z,10.68
2022-12-07T23:13:25.329Z,11.32
2022-12-07T23:15:55.379Z,10.02
2022-12-07T23:18:23.482Z,9.93
2022-12-07T23:21:04.913Z,7.90
2022-12-07T23:23:33.098Z,7.88
2022-12-07T23:26:09.962Z,10.05
2022-12-07T23:28:39.424Z,9.85
2022-12-07T23:31:12.795Z,9.80
2022-12-07T23:33:56.350Z,8.63
2022-12-07T23:36:36.182Z,8.48
2022-12-07T23:39:07.608Z,12.68
2022-12-07T23:44:20.828Z,8.95
2022-12-07T23:46:50.748Z,8.55
2022-12-07T23:49:20.286Z,12.68
2022-12-07T23:52:11.178Z,11.77
2022-12-07T23:54:43.021Z,12.07
2022-12-07T23:57:12.286Z,8.98
2022-12-07T23:59:47.447Z,8.27
